sensor_id;sensor_type;location;lat;lon;timestamp;P1;durP1;ratioP1;P2;durP2;ratioP2
74241;SDS011;62599;49.146;10.426;2023-10-31T00:01:45;1.15;;;0.75;;
74241;SDS011;62599;49.146;10.426;2023-10-31T00:04:11;1.50;;;0.85;;
74241;SDS011;62599;49.146;10.426;2023-10-31T00:06:36;1.10;;;0.70;;
74241;SDS011;62599;49.146;10.426;2023-10-31T00:09:02;1.10;;;1.00;;
74241;SDS011;62599;49.146;10.426;2023-10-31T00:11:27;1.33;;;0.70;;
74241;SDS011;62599;49.146;10.426;2023-10-31T00:13:53;1.30;;;0.85;;
74241;SDS011;62599;49.146;10.426;2023-10-31T00:16:18;1.10;;;0.90;;
74241;SDS011;62599;49.146;10.426;2023-10-31T00:18:43;0.97;;;0.60;;
74241;SDS011;62599;49.146;10.426;2023-10-31T00:21:09;1.87;;;1.13;;
74241;SDS011;62599;49.146;10.426;2023-10-31T00:23:34;1.17;;;0.60;;
74241;SDS011;62599;49.146;10.426;2023-10-31T00:26:08;1.20;;;0.73;;
74241;SDS011;62599;49.146;10.426;2023-10-31T00:28:34;0.55;;;0.52;;
74241;SDS011;62599;49.146;10.426;2023-10-31T00:31:00;0.95;;;0.73;;
74241;SDS011;62599;49.146;10.426;2023-10-31T00:33:25;1.05;;;0.65;;
74241;SDS011;62599;49.146;10.426;2023-10-31T00:35:52;0.38;;;0.38;;
74241;SDS011;62599;49.146;10.426;2023-10-31T00:38:17;0.38;;;0.30;;
74241;SDS011;62599;49.146;10.426;2023-10-31T00:40:43;0.63;;;0.63;;
74241;SDS011;62599;49.146;10.426;2023-10-31T00:43:08;0.60;;;0.50;;
74241;SDS011;62599;49.146;10.426;2023-10-31T00:45:33;0.47;;;0.33;;
74241;SDS011;62599;49.146;10.426;2023-10-31T00:47:59;0.70;;;0.70;;
74241;SDS011;62599;49.146;10.426;2023-10-31T00:50:24;0.70;;;0.45;;
74241;SDS011;62599;49.146;10.426;2023-10-31T00:52:50;0.68;;;0.50;;
74241;SDS011;62599;49.146;10.426;2023-10-31T00:55:15;0.60;;;0.27;;
74241;SDS011;62599;49.146;10.426;2023-10-31T00:57:41;0.55;;;0.32;;
74241;SDS011;62599;49.146;10.426;2023-10-31T01:00:06;0.60;;;0.50;;
74241;SDS011;62599;49.146;10.426;2023-10-31T01:02:33;0.32;;;0.32;;
74241;SDS011;62599;49.146;10.426;2023-10-31T01:04:59;0.22;;;0.22;;
74241;SDS011;62599;49.146;10.426;2023-10-31T01:07:25;0.38;;;0.32;;
74241;SDS011;62599;49.146;10.426;2023-10-31T01:09:50;0.40;;;0.40;;
74241;SDS011;62599;49.146;10.426;2023-10-31T01:12:15;0.23;;;0.20;;
74241;SDS011;62599;49.146;10.426;2023-10-31T01:14:41;0.45;;;0.45;;
74241;SDS011;62599;49.146;10.426;2023-10-31T01:17:06;0.50;;;0.40;;
74241;SDS011;62599;49.146;10.426;2023-10-31T01:19:32;0.65;;;0.43;;
74241;SDS011;62599;49.146;10.426;2023-10-31T01:21:57;0.28;;;0.28;;
74241;SDS011;62599;49.146;10.426;2023-10-31T01:24:23;0.65;;;0.65;;
74241;SDS011;62599;49.146;10.426;2023-10-31T01:26:49;0.43;;;0.32;;
74241;SDS011;62599;49.146;10.426;2023-10-31T01:29:14;1.48;;;0.32;;
74241;SDS011;62599;49.146;10.426;2023-10-31T01:31:42;0.20;;;0.20;;
74241;SDS011;62599;49.146;10.426;2023-10-31T01:34:08;0.50;;;0.50;;
74241;SDS011;62599;49.146;10.426;2023-10-31T01:36:33;0.38;;;0.22;;
74241;SDS011;62599;49.146;10.426;2023-10-31T01:38:59;0.43;;;0.43;;
74241;SDS011;62599;49.146;10.426;2023-10-31T01:41:24;0.25;;;0.22;;
74241;SDS011;62599;49.146;10.426;2023-10-31T01:43:50;2.40;;;1.02;;
74241;SDS011;62599;49.146;10.426;2023-10-31T01:46:16;0.30;;;0.20;;
74241;SDS011;62599;49.146;10.426;2023-10-31T01:48:41;0.27;;;0.27;;
74241;SDS011;62599;49.146;10.426;2023-10-31T01:51:07;0.60;;;0.30;;
74241;SDS011;62599;49.146;10.426;2023-10-31T01:53:34;0.38;;;0.32;;
74241;SDS011;62599;49.146;10.426;2023-10-31T01:56:01;0.22;;;0.22;;
74241;SDS011;62599;49.146;10.426;2023-10-31T01:58:28;1.02;;;0.45;;
74241;SDS011;62599;49.146;10.426;2023-10-31T02:00:57;0.80;;;0.45;;
74241;SDS011;62599;49.146;10.426;2023-10-31T02:03:24;0.40;;;0.13;;
74241;SDS011;62599;49.146;10.426;2023-10-31T02:05:50;0.57;;;0.40;;
74241;SDS011;62599;49.146;10.426;2023-10-31T02:08:16;0.15;;;0.13;;
74241;SDS011;62599;49.146;10.426;2023-10-31T02:10:42;1.13;;;0.22;;
74241;SDS011;62599;49.146;10.426;2023-10-31T02:13:14;0.20;;;0.20;;
74241;SDS011;62599;49.146;10.426;2023-10-31T02:15:41;0.50;;;0.50;;
74241;SDS011;62599;49.146;10.426;2023-10-31T02:18:07;0.22;;;0.22;;
74241;SDS011;62599;49.146;10.426;2023-10-31T02:20:33;0.22;;;0.22;;
74241;SDS011;62599;49.146;10.426;2023-10-31T02:22:58;0.13;;;0.13;;
74241;SDS011;62599;49.146;10.426;2023-10-31T02:25:24;0.40;;;0.40;;
74241;SDS011;62599;49.146;10.426;2023-10-31T02:27:49;0.10;;;0.10;;
74241;SDS011;62599;49.146;10.426;2023-10-31T02:30:14;0.10;;;0.10;;
74241;SDS011;62599;49.146;10.426;2023-10-31T02:32:40;0.32;;;0.32;;
74241;SDS011;62599;49.146;10.426;2023-10-31T02:35:06;0.30;;;0.17;;
74241;SDS011;62599;49.146;10.426;2023-10-31T02:37:33;0.30;;;0.30;;
74241;SDS011;62599;49.146;10.426;2023-10-31T02:39:58;0.50;;;0.47;;
74241;SDS011;62599;49.146;10.426;2023-10-31T02:42:24;2.42;;;0.43;;
74241;SDS011;62599;49.146;10.426;2023-10-31T02:44:50;0.60;;;0.60;;
74241;SDS011;62599;49.146;10.426;2023-10-31T02:47:15;0.50;;;0.30;;
74241;SDS011;62599;49.146;10.426;2023-10-31T02:49:41;1.23;;;0.40;;
74241;SDS011;62599;49.146;10.426;2023-10-31T02:52:06;0.30;;;0.30;;
74241;SDS011;62599;49.146;10.426;2023-10-31T02:54:32;0.77;;;0.55;;
74241;SDS011;62599;49.146;10.426;2023-10-31T02:56:57;0.60;;;0.30;;
74241;SDS011;62599;49.146;10.426;2023-10-31T02:59:23;0.85;;;0.55;;
74241;SDS011;62599;49.146;10.426;2023-10-31T03:01:49;0.65;;;0.32;;
74241;SDS011;62599;49.146;10.426;2023-10-31T03:04:14;0.40;;;0.22;;
74241;SDS011;62599;49.146;10.426;2023-10-31T03:06:39;0.60;;;0.20;;
74241;SDS011;62599;49.146;10.426;2023-10-31T03:09:05;0.30;;;0.30;;
74241;SDS011;62599;49.146;10.426;2023-10-31T03:11:31;4.70;;;0.55;;
74241;SDS011;62599;49.146;10.426;2023-10-31T03:13:57;1.73;;;0.32;;
74241;SDS011;62599;49.146;10.426;2023-10-31T03:16:23;0.82;;;0.50;;
74241;SDS011;62599;49.146;10.426;2023-10-31T03:18:49;2.25;;;0.43;;
74241;SDS011;62599;49.146;10.426;2023-10-31T03:21:14;0.25;;;0.25;;
74241;SDS011;62599;49.146;10.426;2023-10-31T03:23:40;0.68;;;0.47;;
74241;SDS011;62599;49.146;10.426;2023-10-31T03:26:06;0.77;;;0.57;;
74241;SDS011;62599;49.146;10.426;2023-10-31T03:28:32;0.67;;;0.30;;
74241;SDS011;62599;49.146;10.426;2023-10-31T03:30:57;0.87;;;0.87;;
74241;SDS011;62599;49.146;10.426;2023-10-31T03:33:22;0.67;;;0.57;;
74241;SDS011;62599;49.146;10.426;2023-10-31T03:35:48;2.70;;;0.47;;
74241;SDS011;62599;49.146;10.426;2023-10-31T03:38:13;0.80;;;0.37;;
74241;SDS011;62599;49.146;10.426;2023-10-31T03:40:39;0.70;;;0.40;;
74241;SDS011;62599;49.146;10.426;2023-10-31T03:43:04;0.57;;;0.57;;
74241;SDS011;62599;49.146;10.426;2023-10-31T03:45:30;0.77;;;0.70;;
74241;SDS011;62599;49.146;10.426;2023-10-31T03:47:55;0.90;;;0.60;;
74241;SDS011;62599;49.146;10.426;2023-10-31T03:50:21;0.25;;;0.25;;
74241;SDS011;62599;49.146;10.426;2023-10-31T03:52:46;0.80;;;0.22;;
74241;SDS011;62599;49.146;10.426;2023-10-31T03:55:11;1.03;;;0.40;;
74241;SDS011;62599;49.146;10.426;2023-10-31T03:57:37;0.45;;;0.32;;
74241;SDS011;62599;49.146;10.426;2023-10-31T04:00:02;0.73;;;0.50;;
74241;SDS011;62599;49.146;10.426;2023-10-31T04:02:29;0.52;;;0.43;;
74241;SDS011;62599;49.146;10.426;2023-10-31T04:04:55;0.38;;;0.32;;
74241;SDS011;62599;49.146;10.426;2023-10-31T04:07:20;0.20;;;0.20;;
74241;SDS011;62599;49.146;10.426;2023-10-31T04:09:46;0.30;;;0.20;;
74241;SDS011;62599;49.146;10.426;2023-10-31T04:12:11;1.25;;;0.52;;
74241;SDS011;62599;49.146;10.426;2023-10-31T04:14:38;0.20;;;0.20;;
74241;SDS011;62599;49.146;10.426;2023-10-31T04:17:03;0.35;;;0.32;;
74241;SDS011;62599;49.146;10.426;2023-10-31T04:19:29;0.22;;;0.15;;
74241;SDS011;62599;49.146;10.426;2023-10-31T04:21:54;0.28;;;0.25;;
74241;SDS011;62599;49.146;10.426;2023-10-31T04:24:20;0.13;;;0.13;;
74241;SDS011;62599;49.146;10.426;2023-10-31T04:26:45;2.85;;;0.30;;
74241;SDS011;62599;49.146;10.426;2023-10-31T04:29:11;0.23;;;0.23;;
74241;SDS011;62599;49.146;10.426;2023-10-31T04:31:36;0.60;;;0.27;;
74241;SDS011;62599;49.146;10.426;2023-10-31T04:34:01;0.50;;;0.28;;
74241;SDS011;62599;49.146;10.426;2023-10-31T04:36:27;0.43;;;0.30;;
74241;SDS011;62599;49.146;10.426;2023-10-31T04:38:52;4.47;;;0.50;;
74241;SDS011;62599;49.146;10.426;2023-10-31T04:41:17;0.50;;;0.27;;
74241;SDS011;62599;49.146;10.426;2023-10-31T04:43:43;0.30;;;0.20;;
74241;SDS011;62599;49.146;10.426;2023-10-31T04:46:08;0.20;;;0.00;;
74241;SDS011;62599;49.146;10.426;2023-10-31T04:48:33;0.20;;;0.10;;
74241;SDS011;62599;49.146;10.426;2023-10-31T04:50:59;0.30;;;0.30;;
74241;SDS011;62599;49.146;10.426;2023-10-31T04:53:24;0.30;;;0.30;;
74241;SDS011;62599;49.146;10.426;2023-10-31T04:55:49;0.13;;;0.13;;
74241;SDS011;62599;49.146;10.426;2023-10-31T04:58:15;0.30;;;0.30;;
74241;SDS011;62599;49.146;10.426;2023-10-31T05:00:40;0.20;;;0.07;;
74241;SDS011;62599;49.146;10.426;2023-10-31T05:03:06;1.13;;;0.22;;
74241;SDS011;62599;49.146;10.426;2023-10-31T05:05:31;0.90;;;0.23;;
74241;SDS011;62599;49.146;10.426;2023-10-31T05:07:57;0.40;;;0.30;;
74241;SDS011;62599;49.146;10.426;2023-10-31T05:10:23;2.95;;;0.25;;
74241;SDS011;62599;49.146;10.426;2023-10-31T05:12:49;6.70;;;0.30;;
74241;SDS011;62599;49.146;10.426;2023-10-31T05:15:15;1.48;;;0.52;;
74241;SDS011;62599;49.146;10.426;2023-10-31T05:17:41;0.50;;;0.35;;
74241;SDS011;62599;49.146;10.426;2023-10-31T05:20:06;5.03;;;0.40;;
74241;SDS011;62599;49.146;10.426;2023-10-31T05:22:33;0.50;;;0.43;;
74241;SDS011;62599;49.146;10.426;2023-10-31T05:24:59;1.27;;;0.30;;
74241;SDS011;62599;49.146;10.426;2023-10-31T05:27:24;0.90;;;0.25;;
74241;SDS011;62599;49.146;10.426;2023-10-31T05:29:49;0.40;;;0.20;;
74241;SDS011;62599;49.146;10.426;2023-10-31T05:32:15;0.52;;;0.40;;
74241;SDS011;62599;49.146;10.426;2023-10-31T05:34:40;0.40;;;0.20;;
74241;SDS011;62599;49.146;10.426;2023-10-31T05:37:06;0.20;;;0.13;;
74241;SDS011;62599;49.146;10.426;2023-10-31T05:39:31;0.28;;;0.22;;
74241;SDS011;62599;49.146;10.426;2023-10-31T05:41:57;0.22;;;0.22;;
74241;SDS011;62599;49.146;10.426;2023-10-31T05:44:22;0.70;;;0.60;;
74241;SDS011;62599;49.146;10.426;2023-10-31T05:46:47;0.30;;;0.30;;
74241;SDS011;62599;49.146;10.426;2023-10-31T05:49:13;2.90;;;0.10;;
74241;SDS011;62599;49.146;10.426;2023-10-31T05:51:38;1.37;;;0.30;;
74241;SDS011;62599;49.146;10.426;2023-10-31T05:54:03;1.13;;;0.20;;
74241;SDS011;62599;49.146;10.426;2023-10-31T05:56:32;0.60;;;0.35;;
74241;SDS011;62599;49.146;10.426;2023-10-31T05:58:57;0.40;;;0.40;;
74241;SDS011;62599;49.146;10.426;2023-10-31T06:01:22;1.80;;;0.60;;
74241;SDS011;62599;49.146;10.426;2023-10-31T06:03:48;0.73;;;0.67;;
74241;SDS011;62599;49.146;10.426;2023-10-31T06:06:13;0.40;;;0.40;;
74241;SDS011;62599;49.146;10.426;2023-10-31T06:08:40;0.47;;;0.40;;
74241;SDS011;62599;49.146;10.426;2023-10-31T06:11:06;1.52;;;0.40;;
74241;SDS011;62599;49.146;10.426;2023-10-31T06:13:32;0.20;;;0.20;;
74241;SDS011;62599;49.146;10.426;2023-10-31T06:15:59;0.98;;;0.30;;
74241;SDS011;62599;49.146;10.426;2023-10-31T06:18:26;0.45;;;0.45;;
74241;SDS011;62599;49.146;10.426;2023-10-31T06:20:52;0.43;;;0.43;;
74241;SDS011;62599;49.146;10.426;2023-10-31T06:23:18;0.35;;;0.17;;
74241;SDS011;62599;49.146;10.426;2023-10-31T06:25:43;2.00;;;0.30;;
74241;SDS011;62599;49.146;10.426;2023-10-31T06:28:08;0.27;;;0.17;;
74241;SDS011;62599;49.146;10.426;2023-10-31T06:30:34;1.00;;;0.30;;
74241;SDS011;62599;49.146;10.426;2023-10-31T06:32:59;0.22;;;0.22;;
74241;SDS011;62599;49.146;10.426;2023-10-31T06:35:25;0.93;;;0.22;;
74241;SDS011;62599;49.146;10.426;2023-10-31T06:37:51;0.73;;;0.35;;
74241;SDS011;62599;49.146;10.426;2023-10-31T06:40:19;0.28;;;0.25;;
74241;SDS011;62599;49.146;10.426;2023-10-31T06:42:45;0.30;;;0.30;;
74241;SDS011;62599;49.146;10.426;2023-10-31T06:45:13;0.40;;;0.40;;
74241;SDS011;62599;49.146;10.426;2023-10-31T06:47:39;0.43;;;0.37;;
74241;SDS011;62599;49.146;10.426;2023-10-31T06:50:05;0.22;;;0.13;;
74241;SDS011;62599;49.146;10.426;2023-10-31T06:52:32;0.30;;;0.22;;
74241;SDS011;62599;49.146;10.426;2023-10-31T06:54:57;0.27;;;0.27;;
74241;SDS011;62599;49.146;10.426;2023-10-31T06:57:23;0.40;;;0.30;;
74241;SDS011;62599;49.146;10.426;2023-10-31T06:59:48;0.80;;;0.37;;
74241;SDS011;62599;49.146;10.426;2023-10-31T07:02:13;0.30;;;0.25;;
74241;SDS011;62599;49.146;10.426;2023-10-31T07:04:39;0.70;;;0.35;;
74241;SDS011;62599;49.146;10.426;2023-10-31T07:07:04;0.68;;;0.50;;
74241;SDS011;62599;49.146;10.426;2023-10-31T07:09:30;0.43;;;0.20;;
74241;SDS011;62599;49.146;10.426;2023-10-31T07:11:55;0.50;;;0.30;;
74241;SDS011;62599;49.146;10.426;2023-10-31T07:14:20;0.13;;;0.13;;
74241;SDS011;62599;49.146;10.426;2023-10-31T07:16:46;0.30;;;0.30;;
74241;SDS011;62599;49.146;10.426;2023-10-31T07:19:13;2.20;;;0.32;;
74241;SDS011;62599;49.146;10.426;2023-10-31T07:21:39;1.83;;;0.22;;
74241;SDS011;62599;49.146;10.426;2023-10-31T07:24:04;3.00;;;0.37;;
74241;SDS011;62599;49.146;10.426;2023-10-31T07:26:30;1.05;;;0.35;;
74241;SDS011;62599;49.146;10.426;2023-10-31T07:28:55;0.50;;;0.20;;
74241;SDS011;62599;49.146;10.426;2023-10-31T07:31:21;0.40;;;0.13;;
74241;SDS011;62599;49.146;10.426;2023-10-31T07:33:47;0.22;;;0.22;;
74241;SDS011;62599;49.146;10.426;2023-10-31T07:36:12;0.50;;;0.30;;
74241;SDS011;62599;49.146;10.426;2023-10-31T07:38:38;1.75;;;0.50;;
74241;SDS011;62599;49.146;10.426;2023-10-31T07:41:03;1.23;;;0.30;;
74241;SDS011;62599;49.146;10.426;2023-10-31T07:43:29;3.65;;;0.25;;
74241;SDS011;62599;49.146;10.426;2023-10-31T07:45:54;1.38;;;0.22;;
74241;SDS011;62599;49.146;10.426;2023-10-31T07:48:20;0.40;;;0.22;;
74241;SDS011;62599;49.146;10.426;2023-10-31T07:50:45;0.55;;;0.43;;
74241;SDS011;62599;49.146;10.426;2023-10-31T07:53:11;0.38;;;0.38;;
74241;SDS011;62599;49.146;10.426;2023-10-31T07:55:36;0.22;;;0.22;;
74241;SDS011;62599;49.146;10.426;2023-10-31T07:58:02;0.20;;;0.20;;
74241;SDS011;62599;49.146;10.426;2023-10-31T08:00:30;0.57;;;0.30;;
74241;SDS011;62599;49.146;10.426;2023-10-31T08:02:56;0.47;;;0.13;;
74241;SDS011;62599;49.146;10.426;2023-10-31T08:05:22;0.33;;;0.33;;
74241;SDS011;62599;49.146;10.426;2023-10-31T08:07:47;0.45;;;0.45;;
74241;SDS011;62599;49.146;10.426;2023-10-31T08:10:13;0.57;;;0.57;;
74241;SDS011;62599;49.146;10.426;2023-10-31T08:12:38;0.32;;;0.32;;
74241;SDS011;62599;49.146;10.426;2023-10-31T08:15:04;0.30;;;0.10;;
74241;SDS011;62599;49.146;10.426;2023-10-31T08:17:30;0.13;;;0.13;;
74241;SDS011;62599;49.146;10.426;2023-10-31T08:19:55;0.50;;;0.27;;
74241;SDS011;62599;49.146;10.426;2023-10-31T08:22:20;0.63;;;0.20;;
74241;SDS011;62599;49.146;10.426;2023-10-31T08:24:46;0.30;;;0.30;;
74241;SDS011;62599;49.146;10.426;2023-10-31T08:27:11;0.82;;;0.43;;
74241;SDS011;62599;49.146;10.426;2023-10-31T08:29:37;2.75;;;0.45;;
74241;SDS011;62599;49.146;10.426;2023-10-31T08:32:03;0.60;;;0.60;;
74241;SDS011;62599;49.146;10.426;2023-10-31T08:34:31;0.22;;;0.22;;
74241;SDS011;62599;49.146;10.426;2023-10-31T08:36:56;2.27;;;0.40;;
74241;SDS011;62599;49.146;10.426;2023-10-31T08:39:24;0.90;;;0.43;;
74241;SDS011;62599;49.146;10.426;2023-10-31T08:41:56;0.22;;;0.22;;
74241;SDS011;62599;49.146;10.426;2023-10-31T08:44:22;5.72;;;0.60;;
74241;SDS011;62599;49.146;10.426;2023-10-31T08:46:48;0.68;;;0.30;;
74241;SDS011;62599;49.146;10.426;2023-10-31T08:49:14;0.40;;;0.20;;
74241;SDS011;62599;49.146;10.426;2023-10-31T08:51:40;0.20;;;0.15;;
74241;SDS011;62599;49.146;10.426;2023-10-31T08:54:06;1.58;;;0.32;;
74241;SDS011;62599;49.146;10.426;2023-10-31T08:56:31;0.60;;;0.60;;
74241;SDS011;62599;49.146;10.426;2023-10-31T08:58:57;0.25;;;0.13;;
74241;SDS011;62599;49.146;10.426;2023-10-31T09:01:22;0.13;;;0.13;;
74241;SDS011;62599;49.146;10.426;2023-10-31T09:03:51;3.13;;;0.50;;
74241;SDS011;62599;49.146;10.426;2023-10-31T09:06:16;0.13;;;0.13;;
74241;SDS011;62599;49.146;10.426;2023-10-31T09:08:42;0.37;;;0.30;;
74241;SDS011;62599;49.146;10.426;2023-10-31T09:11:07;0.60;;;0.10;;
74241;SDS011;62599;49.146;10.426;2023-10-31T09:13:32;0.22;;;0.22;;
74241;SDS011;62599;49.146;10.426;2023-10-31T09:15:58;1.25;;;0.30;;
74241;SDS011;62599;49.146;10.426;2023-10-31T09:18:24;0.20;;;0.10;;
74241;SDS011;62599;49.146;10.426;2023-10-31T09:20:50;0.93;;;0.32;;
74241;SDS011;62599;49.146;10.426;2023-10-31T09:23:18;1.33;;;0.13;;
74241;SDS011;62599;49.146;10.426;2023-10-31T09:25:44;0.82;;;0.25;;
74241;SDS011;62599;49.146;10.426;2023-10-31T09:28:09;0.95;;;0.40;;
74241;SDS011;62599;49.146;10.426;2023-10-31T09:30:35;0.22;;;0.13;;
74241;SDS011;62599;49.146;10.426;2023-10-31T09:33:00;0.15;;;0.10;;
74241;SDS011;62599;49.146;10.426;2023-10-31T09:35:29;0.50;;;0.40;;
74241;SDS011;62599;49.146;10.426;2023-10-31T09:37:55;0.25;;;0.15;;
74241;SDS011;62599;49.146;10.426;2023-10-31T09:40:23;2.40;;;0.28;;
74241;SDS011;62599;49.146;10.426;2023-10-31T09:42:51;1.63;;;0.73;;
74241;SDS011;62599;49.146;10.426;2023-10-31T09:45:17;0.28;;;0.22;;
74241;SDS011;62599;49.146;10.426;2023-10-31T09:47:43;2.05;;;0.20;;
74241;SDS011;62599;49.146;10.426;2023-10-31T09:50:11;0.38;;;0.38;;
74241;SDS011;62599;49.146;10.426;2023-10-31T09:52:37;0.15;;;0.15;;
74241;SDS011;62599;49.146;10.426;2023-10-31T09:55:03;0.10;;;0.10;;
74241;SDS011;62599;49.146;10.426;2023-10-31T09:57:30;1.50;;;0.43;;
74241;SDS011;62599;49.146;10.426;2023-10-31T09:59:55;1.15;;;0.45;;
74241;SDS011;62599;49.146;10.426;2023-10-31T10:02:20;3.45;;;0.52;;
74241;SDS011;62599;49.146;10.426;2023-10-31T10:04:49;1.53;;;0.10;;
74241;SDS011;62599;49.146;10.426;2023-10-31T10:07:15;4.78;;;0.45;;
74241;SDS011;62599;49.146;10.426;2023-10-31T10:09:42;0.73;;;0.25;;
74241;SDS011;62599;49.146;10.426;2023-10-31T10:12:09;0.25;;;0.25;;
74241;SDS011;62599;49.146;10.426;2023-10-31T10:14:38;5.00;;;0.57;;
74241;SDS011;62599;49.146;10.426;2023-10-31T10:17:23;0.50;;;0.35;;
74241;SDS011;62599;49.146;10.426;2023-10-31T10:20:05;0.98;;;0.25;;
74241;SDS011;62599;49.146;10.426;2023-10-31T10:22:34;0.30;;;0.30;;
74241;SDS011;62599;49.146;10.426;2023-10-31T10:25:01;1.77;;;0.32;;
74241;SDS011;62599;49.146;10.426;2023-10-31T10:27:30;0.60;;;0.35;;
74241;SDS011;62599;49.146;10.426;2023-10-31T10:29:56;1.90;;;0.30;;
74241;SDS011;62599;49.146;10.426;2023-10-31T10:32:21;0.98;;;0.90;;
74241;SDS011;62599;49.146;10.426;2023-10-31T10:34:47;2.87;;;0.40;;
74241;SDS011;62599;49.146;10.426;2023-10-31T10:37:12;3.63;;;0.73;;
74241;SDS011;62599;49.146;10.426;2023-10-31T10:39:38;1.38;;;0.80;;
74241;SDS011;62599;49.146;10.426;2023-10-31T10:42:07;0.32;;;0.28;;
74241;SDS011;62599;49.146;10.426;2023-10-31T10:44:35;0.63;;;0.43;;
74241;SDS011;62599;49.146;10.426;2023-10-31T10:47:03;1.42;;;0.43;;
74241;SDS011;62599;49.146;10.426;2023-10-31T10:49:32;1.02;;;0.43;;
74241;SDS011;62599;49.146;10.426;2023-10-31T10:52:01;0.25;;;0.25;;
74241;SDS011;62599;49.146;10.426;2023-10-31T10:54:41;1.00;;;0.52;;
74241;SDS011;62599;49.146;10.426;2023-10-31T10:57:31;4.50;;;1.20;;
74241;SDS011;62599;49.146;10.426;2023-10-31T11:00:05;1.40;;;0.75;;
74241;SDS011;62599;49.146;10.426;2023-10-31T11:02:38;2.08;;;0.32;;
74241;SDS011;62599;49.146;10.426;2023-10-31T11:05:05;4.32;;;1.25;;
74241;SDS011;62599;49.146;10.426;2023-10-31T11:07:34;2.97;;;1.75;;
74241;SDS011;62599;49.146;10.426;2023-10-31T11:10:02;1.13;;;0.90;;
74241;SDS011;62599;49.146;10.426;2023-10-31T11:12:30;3.30;;;0.77;;
74241;SDS011;62599;49.146;10.426;2023-10-31T11:15:00;2.30;;;0.73;;
74241;SDS011;62599;49.146;10.426;2023-10-31T11:17:45;3.67;;;1.40;;
74241;SDS011;62599;49.146;10.426;2023-10-31T11:20:27;3.33;;;0.85;;
74241;SDS011;62599;49.146;10.426;2023-10-31T11:22:57;2.85;;;0.73;;
74241;SDS011;62599;49.146;10.426;2023-10-31T11:25:23;9.68;;;4.20;;
74241;SDS011;62599;49.146;10.426;2023-10-31T11:27:52;9.85;;;3.13;;
74241;SDS011;62599;49.146;10.426;2023-10-31T11:30:22;6.03;;;2.28;;
74241;SDS011;62599;49.146;10.426;2023-10-31T11:32:53;6.82;;;2.33;;
74241;SDS011;62599;49.146;10.426;2023-10-31T11:35:21;1.80;;;0.90;;
74241;SDS011;62599;49.146;10.426;2023-10-31T11:37:48;2.55;;;1.30;;
74241;SDS011;62599;49.146;10.426;2023-10-31T11:40:21;1.10;;;0.63;;
74241;SDS011;62599;49.146;10.426;2023-10-31T11:42:51;2.90;;;0.98;;
74241;SDS011;62599;49.146;10.426;2023-10-31T11:48:46;0.60;;;0.30;;
74241;SDS011;62599;49.146;10.426;2023-10-31T11:51:11;6.88;;;0.47;;
74241;SDS011;62599;49.146;10.426;2023-10-31T11:53:38;2.45;;;0.68;;
74241;SDS011;62599;49.146;10.426;2023-10-31T11:56:19;2.20;;;0.57;;
74241;SDS011;62599;49.146;10.426;2023-10-31T11:58:58;2.00;;;0.32;;
74241;SDS011;62599;49.146;10.426;2023-10-31T12:01:30;1.30;;;0.40;;
74241;SDS011;62599;49.146;10.426;2023-10-31T12:03:56;1.42;;;0.65;;
74241;SDS011;62599;49.146;10.426;2023-10-31T12:06:29;1.75;;;1.02;;
74241;SDS011;62599;49.146;10.426;2023-10-31T12:09:02;3.50;;;0.50;;
74241;SDS011;62599;49.146;10.426;2023-10-31T12:11:31;0.82;;;0.22;;
74241;SDS011;62599;49.146;10.426;2023-10-31T12:14:04;3.72;;;0.50;;
74241;SDS011;62599;49.146;10.426;2023-10-31T12:16:32;0.22;;;0.22;;
74241;SDS011;62599;49.146;10.426;2023-10-31T12:19:02;2.13;;;0.57;;
74241;SDS011;62599;49.146;10.426;2023-10-31T12:21:46;0.40;;;0.20;;
74241;SDS011;62599;49.146;10.426;2023-10-31T12:24:13;0.60;;;0.40;;
74241;SDS011;62599;49.146;10.426;2023-10-31T12:26:45;3.35;;;0.70;;
74241;SDS011;62599;49.146;10.426;2023-10-31T12:29:25;0.93;;;0.68;;
74241;SDS011;62599;49.146;10.426;2023-10-31T12:31:51;1.88;;;0.55;;
74241;SDS011;62599;49.146;10.426;2023-10-31T12:34:20;0.22;;;0.22;;
74241;SDS011;62599;49.146;10.426;2023-10-31T12:36:48;0.50;;;0.43;;
74241;SDS011;62599;49.146;10.426;2023-10-31T12:39:42;1.52;;;0.40;;
74241;SDS011;62599;49.146;10.426;2023-10-31T12:42:08;1.58;;;0.65;;
74241;SDS011;62599;49.146;10.426;2023-10-31T12:44:40;0.52;;;0.30;;
74241;SDS011;62599;49.146;10.426;2023-10-31T12:47:24;2.70;;;0.52;;
74241;SDS011;62599;49.146;10.426;2023-10-31T12:50:05;2.15;;;0.75;;
74241;SDS011;62599;49.146;10.426;2023-10-31T12:52:50;3.60;;;0.45;;
74241;SDS011;62599;49.146;10.426;2023-10-31T12:55:21;2.08;;;0.60;;
74241;SDS011;62599;49.146;10.426;2023-10-31T12:57:48;0.73;;;0.28;;
74241;SDS011;62599;49.146;10.426;2023-10-31T13:00:14;4.07;;;0.77;;
74241;SDS011;62599;49.146;10.426;2023-10-31T13:02:43;2.30;;;0.82;;
74241;SDS011;62599;49.146;10.426;2023-10-31T13:05:15;0.70;;;0.35;;
74241;SDS011;62599;49.146;10.426;2023-10-31T13:07:47;0.63;;;0.35;;
74241;SDS011;62599;49.146;10.426;2023-10-31T13:10:15;1.38;;;0.32;;
74241;SDS011;62599;49.146;10.426;2023-10-31T13:12:47;6.45;;;0.35;;
74241;SDS011;62599;49.146;10.426;2023-10-31T13:15:17;1.92;;;0.22;;
74241;SDS011;62599;49.146;10.426;2023-10-31T13:17:54;1.13;;;0.15;;
74241;SDS011;62599;49.146;10.426;2023-10-31T13:20:20;4.13;;;0.40;;
74241;SDS011;62599;49.146;10.426;2023-10-31T13:22:46;1.40;;;0.25;;
74241;SDS011;62599;49.146;10.426;2023-10-31T13:25:13;1.05;;;0.38;;
74241;SDS011;62599;49.146;10.426;2023-10-31T13:27:43;2.78;;;0.40;;
74241;SDS011;62599;49.146;10.426;2023-10-31T13:30:12;4.25;;;0.52;;
74241;SDS011;62599;49.146;10.426;2023-10-31T13:32:42;2.75;;;0.40;;
74241;SDS011;62599;49.146;10.426;2023-10-31T13:35:16;0.40;;;0.20;;
74241;SDS011;62599;49.146;10.426;2023-10-31T13:37:43;1.65;;;0.45;;
74241;SDS011;62599;49.146;10.426;2023-10-31T13:40:16;0.43;;;0.43;;
74241;SDS011;62599;49.146;10.426;2023-10-31T13:42:52;1.27;;;0.57;;
74241;SDS011;62599;49.146;10.426;2023-10-31T13:45:18;2.05;;;0.82;;
74241;SDS011;62599;49.146;10.426;2023-10-31T13:47:50;7.18;;;0.80;;
74241;SDS011;62599;49.146;10.426;2023-10-31T13:50:15;2.80;;;0.25;;
74241;SDS011;62599;49.146;10.426;2023-10-31T13:52:41;4.78;;;0.88;;
74241;SDS011;62599;49.146;10.426;2023-10-31T13:55:07;1.05;;;0.43;;
74241;SDS011;62599;49.146;10.426;2023-10-31T13:57:38;0.50;;;0.43;;
74241;SDS011;62599;49.146;10.426;2023-10-31T14:02:38;0.63;;;0.40;;
74241;SDS011;62599;49.146;10.426;2023-10-31T14:05:14;4.55;;;0.52;;
74241;SDS011;62599;49.146;10.426;2023-10-31T14:07:49;1.25;;;0.45;;
74241;SDS011;62599;49.146;10.426;2023-10-31T14:10:20;2.10;;;0.47;;
74241;SDS011;62599;49.146;10.426;2023-10-31T14:12:55;0.63;;;0.43;;
74241;SDS011;62599;49.146;10.426;2023-10-31T14:15:21;0.45;;;0.43;;
74241;SDS011;62599;49.146;10.426;2023-10-31T14:17:47;4.78;;;0.90;;
74241;SDS011;62599;49.146;10.426;2023-10-31T14:20:20;2.10;;;0.32;;
74241;SDS011;62599;49.146;10.426;2023-10-31T14:22:46;2.50;;;0.47;;
74241;SDS011;62599;49.146;10.426;2023-10-31T14:25:13;1.15;;;0.40;;
74241;SDS011;62599;49.146;10.426;2023-10-31T14:27:38;1.83;;;0.50;;
74241;SDS011;62599;49.146;10.426;2023-10-31T14:30:04;1.38;;;0.30;;
74241;SDS011;62599;49.146;10.426;2023-10-31T14:32:30;2.35;;;0.45;;
74241;SDS011;62599;49.146;10.426;2023-10-31T14:34:56;3.22;;;0.38;;
74241;SDS011;62599;49.146;10.426;2023-10-31T14:37:21;2.33;;;0.47;;
74241;SDS011;62599;49.146;10.426;2023-10-31T14:39:46;1.33;;;0.30;;